Time;durP1;ratioP1;P1;durP2;ratioP2;P2;SDS_P1;SDS_P2;PMS_P1;PMS_P2;Temp;Humidity;BMP_temperature;BMP_pressure;BME280_temperature;BME280_humidity;BME280_pressure;Samples;Min_cycle;Max_cycle;Signal;HPM_P1;HPM_P2
2021/10/09 00:01:22;;;;;;;91.07;45.03;;;;;;;5.79;100.00;103152.56;5092177;28;20050;-76
2021/10/09 00:03:47;;;;;;;108.07;49.75;;;;;;;5.78;100.00;103150.84;5091746;28;20032;-76
2021/10/09 00:06:13;;;;;;;59.70;33.53;;;;;;;5.77;100.00;103159.69;5092357;28;20028;-76
2021/10/09 00:08:38;;;;;;;67.50;36.10;;;;;;;5.76;100.00;103158.81;5092108;28;20040;-76
2021/10/09 00:11:06;;;;;;;94.55;46.95;;;;;;;5.75;100.00;103156.22;5074387;28;20047;-76
2021/10/09 00:13:31;;;;;;;86.82;41.58;;;;;;;5.73;100.00;103155.41;5092315;28;20058;-76
2021/10/09 00:15:57;;;;;;;70.63;34.80;;;;;;;5.71;100.00;103157.25;5091656;28;20036;-76
2021/10/09 00:18:22;;;;;;;92.47;45.80;;;;;;;5.72;100.00;103145.75;5092303;28;20361;-76
2021/10/09 00:20:47;;;;;;;108.32;50.85;;;;;;;5.69;100.00;103140.56;5091249;28;20028;-76
2021/10/09 00:23:13;;;;;;;75.20;40.10;;;;;;;5.68;100.00;103150.28;5092655;28;20040;-76
2021/10/09 00:25:38;;;;;;;61.10;32.72;;;;;;;5.67;100.00;103147.69;5092177;28;20032;-75
2021/10/09 00:28:03;;;;;;;73.95;38.22;;;;;;;5.66;100.00;103146.81;5091358;28;20511;-76
2021/10/09 00:30:29;;;;;;;104.97;47.90;;;;;;;5.65;100.00;103156.50;5092280;28;20388;-75
2021/10/09 00:32:54;;;;;;;83.78;42.47;;;;;;;5.64;100.00;103154.81;5091279;28;20032;-76
2021/10/09 00:35:20;;;;;;;79.22;38.53;;;;;;;5.62;100.00;103155.75;5092097;28;20414;-75
2021/10/09 00:37:45;;;;;;;76.63;39.05;;;;;;;5.60;100.00;103154.97;5091198;28;20043;-75
2021/10/09 00:40:11;;;;;;;83.88;42.38;;;;;;;5.58;100.00;103155.00;5092155;28;20028;-75
2021/10/09 00:42:36;;;;;;;92.63;46.38;;;;;;;5.57;100.00;103157.66;5093461;28;20071;-75
2021/10/09 00:45:03;;;;;;;97.45;45.38;;;;;;;5.55;100.00;103152.44;5095248;28;20479;-76
2021/10/09 00:47:28;;;;;;;72.10;37.30;;;;;;;5.52;100.00;103144.63;5095766;28;20077;-76
2021/10/09 00:49:53;;;;;;;123.53;53.47;;;;;;;5.53;100.00;103149.00;5095013;28;20036;-76
2021/10/09 00:52:19;;;;;;;97.68;46.30;;;;;;;5.53;100.00;103149.00;5095828;28;20032;-76
2021/10/09 00:54:47;;;;;;;79.82;39.80;;;;;;;5.51;100.00;103153.47;5095112;28;20051;-76
2021/10/09 00:57:16;;;;;;;88.25;44.10;;;;;;;5.51;100.00;103144.66;5095672;28;20047;-76
2021/10/09 00:59:43;;;;;;;131.77;56.30;;;;;;;5.50;100.00;103151.75;5095624;28;20066;-76
2021/10/09 01:02:08;;;;;;;99.32;47.10;;;;;;;5.50;100.00;103151.75;5095007;28;20028;-76
2021/10/09 01:04:35;;;;;;;104.70;46.63;;;;;;;5.50;100.00;103145.59;5095445;28;20537;-76
2021/10/09 01:07:01;;;;;;;96.45;44.45;;;;;;;5.48;100.00;103146.50;5094533;28;20030;-75
2021/10/09 01:09:27;;;;;;;87.07;43.95;;;;;;;5.48;100.00;103146.50;5095699;28;20043;-76
2021/10/09 01:11:52;;;;;;;106.70;49.90;;;;;;;5.49;100.00;103147.38;5094783;28;20032;-76
2021/10/09 01:14:17;;;;;;;132.43;55.47;;;;;;;5.48;100.00;103149.16;5095274;28;20043;-76
2021/10/09 01:16:43;;;;;;;120.50;53.67;;;;;;;5.48;100.00;103141.22;5095445;28;20063;-76
2021/10/09 01:19:09;;;;;;;93.40;44.10;;;;;;;5.48;100.00;103145.66;5094618;28;20464;-75
2021/10/09 01:21:43;;;;;;;115.88;51.40;;;;;;;5.48;100.00;103140.38;5095231;28;20048;-75
2021/10/09 01:24:09;;;;;;;118.22;50.92;;;;;;;5.45;100.00;103140.47;5094574;28;20047;-76
2021/10/09 01:26:35;;;;;;;162.48;63.03;;;;;;;5.45;100.00;103141.31;5095002;28;20468;-75
2021/10/09 01:29:01;;;;;;;90.43;42.42;;;;;;;5.44;100.00;103142.22;5094358;28;20035;-76
2021/10/09 01:31:26;;;;;;;107.25;46.40;;;;;;;5.43;100.00;103134.34;5076672;28;20028;-75
2021/10/09 01:33:51;;;;;;;86.65;40.85;;;;;;;5.41;100.00;103130.91;5094390;28;20119;-76
2021/10/09 01:36:17;;;;;;;100.43;46.20;;;;;;;5.41;100.00;103133.56;5077089;28;20460;-75
2021/10/09 01:38:49;;;;;;;93.63;44.80;;;;;;;5.40;100.00;103130.03;5094605;28;20031;-75
2021/10/09 01:41:14;;;;;;;;;;;;;;;5.39;100.00;103135.38;5095590;28;20028;-76
2021/10/09 01:43:39;;;;;;;107.30;46.80;;;;;;;5.39;100.00;103135.38;5094601;28;19920;-75
2021/10/09 01:46:04;;;;;;;103.97;45.75;;;;;;;5.38;100.00;103133.66;5093999;28;20032;-75
2021/10/09 01:48:35;;;;;;;85.55;38.03;;;;;;;5.36;100.00;103132.81;5094434;28;20468;-75
2021/10/09 01:51:01;;;;;;;92.95;42.42;;;;;;;5.33;100.00;103128.53;5093810;28;20028;-75
2021/10/09 01:53:26;;;;;;;104.05;45.55;;;;;;;5.30;100.00;103126.00;5076164;28;20039;-75
2021/10/09 01:55:52;;;;;;;79.95;38.75;;;;;;;5.30;100.00;103126.00;5093434;28;20531;-76
2021/10/09 01:58:17;;;;;;;82.53;39.88;;;;;;;5.29;100.00;103121.63;5094524;28;20108;-75
2021/10/09 02:00:42;;;;;;;100.95;45.38;;;;;;;5.29;100.00;103118.97;5094380;28;20123;-75
2021/10/09 02:03:09;;;;;;;107.63;47.33;;;;;;;5.32;100.00;103118.03;5093795;28;20452;-75
2021/10/09 02:05:35;;;;;;;126.03;52.15;;;;;;;5.31;100.00;103119.78;5094283;28;20035;-75
2021/10/09 02:08:02;;;;;;;115.13;50.45;;;;;;;5.31;100.00;103117.13;5093671;28;20032;-75
2021/10/09 02:10:28;;;;;;;77.07;36.97;;;;;;;5.26;100.00;103116.44;5094344;28;20092;-75
2021/10/09 02:12:54;;;;;;;106.93;46.22;;;;;;;5.25;100.00;103114.69;5059267;28;20105;-76
2021/10/09 02:15:31;;;;;;;87.50;40.63;;;;;;;5.23;100.00;103122.66;5094200;28;20040;-75
2021/10/09 02:26:08;;;;;;;109.80;48.10;;;;;;;5.22;100.00;103113.00;5093185;28;20043;-75
2021/10/09 02:28:33;;;;;;;125.10;49.53;;;;;;;5.20;100.00;103117.47;5093937;28;20051;-75
2021/10/09 02:30:58;;;;;;;95.80;40.53;;;;;;;5.21;100.00;103113.06;5093292;28;20043;-75
2021/10/09 02:33:24;;;;;;;93.03;41.40;;;;;;;5.20;100.00;103111.34;5093746;28;20028;-75
2021/10/09 02:35:49;;;;;;;79.65;36.90;;;;;;;5.18;100.00;103108.75;5093822;28;20502;-74
2021/10/09 02:38:15;;;;;;;123.68;51.20;;;;;;;5.17;100.00;103104.38;5092806;28;20409;-74
2021/10/09 02:40:44;;;;;;;106.47;45.08;;;;;;;5.16;100.00;103110.56;5093722;28;20107;-75
2021/10/09 02:43:10;;;;;;;127.03;50.40;;;;;;;5.18;100.00;103100.84;5092808;28;20479;-75
2021/10/09 02:45:36;;;;;;;113.80;51.05;;;;;;;5.19;100.00;103106.97;5093567;28;20036;-75
2021/10/09 02:48:03;;;;;;;107.13;47.88;;;;;;;5.18;100.00;103105.25;5092699;28;20517;-75
2021/10/09 02:50:29;;;;;;;115.70;48.33;;;;;;;5.16;100.00;103104.44;5093444;28;20035;-75
2021/10/09 02:52:55;;;;;;;132.65;51.72;;;;;;;5.15;100.00;103095.66;5093719;28;20040;-74
2021/10/09 02:55:21;;;;;;;117.22;48.53;;;;;;;5.13;100.00;103105.38;5093122;28;20028;-74
2021/10/09 02:57:47;;;;;;;145.27;56.10;;;;;;;5.14;100.00;103106.28;5075388;28;20024;-74
2021/10/09 03:00:14;;;;;;;95.30;43.58;;;;;;;5.15;100.00;103102.69;5092732;28;20028;-75
2021/10/09 03:02:39;;;;;;;138.30;51.88;;;;;;;5.17;100.00;103101.75;5093078;28;20154;-75
2021/10/09 03:05:06;;;;;;;155.50;57.22;;;;;;;5.17;100.00;103101.75;5092579;28;20154;-75
2021/10/09 03:07:32;;;;;;;128.98;50.25;;;;;;;5.16;100.00;103101.78;5093088;28;20173;-74
2021/10/09 03:09:58;;;;;;;124.82;49.78;;;;;;;5.14;100.00;103106.28;5093229;28;20028;-74
2021/10/09 03:12:24;;;;;;;128.23;51.17;;;;;;;5.12;100.00;103103.69;5093146;28;20062;-74
2021/10/09 03:14:49;;;;;;;145.90;54.97;;;;;;;5.10;100.00;103108.97;5093101;28;20468;-75
2021/10/09 03:17:15;;;;;;;114.53;43.72;;;;;;;5.09;100.00;103102.00;5074244;28;20032;-75
2021/10/09 03:19:40;;;;;;;147.85;54.83;;;;;;;5.09;100.00;103096.72;5092680;28;20034;-75
2021/10/09 03:22:06;;;;;;;140.27;54.47;;;;;;;5.08;100.00;103105.53;5092099;28;20054;-74
2021/10/09 03:24:32;;;;;;;126.18;50.72;;;;;;;5.07;100.00;103105.56;5093118;28;20028;-75
2021/10/09 03:26:57;;;;;;;122.47;45.72;;;;;;;5.05;100.00;103102.13;5092897;28;20085;-74
2021/10/09 03:29:22;;;;;;;227.02;71.55;;;;;;;5.05;100.00;103103.00;5092197;28;20036;-74
2021/10/09 03:31:48;;;;;;;135.95;53.83;;;;;;;5.06;100.00;103107.38;5092882;28;20115;-75
2021/10/09 03:34:13;;;;;;;158.77;58.35;;;;;;;5.05;100.00;103099.50;5092216;28;20036;-74
2021/10/09 03:36:38;;;;;;;173.23;61.17;;;;;;;5.05;100.00;103099.50;5092668;28;20040;-75
2021/10/09 03:39:08;;;;;;;110.60;44.97;;;;;;;5.06;100.00;103091.53;5092218;28;20039;-75
2021/10/09 03:41:35;;;;;;;121.95;48.67;;;;;;;5.05;100.00;103096.84;5093056;28;20060;-75
2021/10/09 03:44:00;;;;;;;142.20;51.72;;;;;;;5.05;100.00;103089.78;5092707;28;20039;-75
2021/10/09 03:46:28;;;;;;;168.90;61.17;;;;;;;5.05;100.00;103083.66;5092355;28;20028;-75
2021/10/09 03:54:03;;;;;;;166.95;59.92;;;;;;;5.04;100.00;103089.84;5092041;28;20066;-76
2021/10/09 03:56:28;;;;;;;131.65;48.97;;;;;;;5.04;100.00;103095.97;5092540;28;20464;-75
2021/10/09 03:58:54;;;;;;;135.60;50.58;;;;;;;5.03;100.00;103093.38;5092844;28;20043;-75
2021/10/09 04:01:19;;;;;;;137.90;51.13;;;;;;;5.02;100.00;103103.09;5091893;28;20107;-74
2021/10/09 04:03:44;;;;;;;159.07;57.42;;;;;;;5.04;100.00;103090.69;5092477;28;20029;-74
2021/10/09 04:06:10;;;;;;;97.18;42.45;;;;;;;5.01;100.00;103096.06;5091761;28;20505;-75
2021/10/09 04:08:35;;;;;;;104.88;43.88;;;;;;;5.01;100.00;103100.50;5092574;28;20034;-74
2021/10/09 04:11:01;;;;;;;135.32;52.42;;;;;;;5.00;100.00;103098.75;5092056;28;20032;-74
2021/10/09 04:13:26;;;;;;;117.68;45.35;;;;;;;4.98;100.00;103095.31;5091766;28;20028;-75
2021/10/09 04:15:51;;;;;;;108.55;46.10;;;;;;;4.99;100.00;103097.06;5092295;28;20046;-75
2021/10/09 04:18:17;;;;;;;100.75;41.45;;;;;;;4.97;100.00;103093.59;5094362;28;20448;-75
2021/10/09 04:20:42;;;;;;;87.43;36.92;;;;;;;4.97;100.00;103094.47;5095964;28;20032;-74
2021/10/09 04:23:08;;;;;;;129.13;49.92;;;;;;;4.95;100.00;103093.63;5095266;28;20436;-75
2021/10/09 04:25:33;;;;;;;104.65;42.97;;;;;;;4.94;100.00;103087.50;5096210;28;20134;-74
2021/10/09 04:27:59;;;;;;;151.18;54.42;;;;;;;4.94;100.00;103091.88;5096243;28;20056;-75
2021/10/09 04:30:24;;;;;;;163.15;56.13;;;;;;;4.94;100.00;103094.53;5077462;28;20063;-75
2021/10/09 04:32:49;;;;;;;141.10;53.88;;;;;;;4.95;100.00;103091.00;5096186;28;20086;-75
2021/10/09 04:35:16;;;;;;;149.60;55.70;;;;;;;4.94;100.00;103095.41;5095470;28;20041;-75
2021/10/09 04:37:42;;;;;;;110.65;42.53;;;;;;;4.92;100.00;103091.09;5096017;28;20043;-75
2021/10/09 04:40:08;;;;;;;109.97;44.75;;;;;;;4.90;100.00;103087.66;5095944;28;20032;-77
2021/10/09 04:42:34;;;;;;;108.88;44.72;;;;;;;4.87;100.00;103088.59;5096101;28;20472;-75
2021/10/09 04:44:59;;;;;;;179.85;60.33;;;;;;;4.86;100.00;103093.91;5096552;28;20035;-75
2021/10/09 04:47:25;;;;;;;114.50;44.35;;;;;;;4.86;100.00;103091.28;5095591;28;20036;-75
2021/10/09 04:49:50;;;;;;;135.45;52.55;;;;;;;4.81;100.00;103091.41;5095947;28;20384;-74
2021/10/09 04:52:16;;;;;;;111.07;44.20;;;;;;;4.80;100.00;103081.78;5095149;28;20240;-75
2021/10/09 04:54:41;;;;;;;142.27;51.67;;;;;;;4.77;100.00;103080.09;5095952;28;20036;-75
2021/10/09 04:57:06;;;;;;;93.38;39.67;;;;;;;4.76;100.00;103091.56;5096001;28;20040;-75
2021/10/09 04:59:32;;;;;;;129.65;48.88;;;;;;;4.76;100.00;103085.41;5094704;28;20464;-75
2021/10/09 05:01:57;;;;;;;134.73;48.70;;;;;;;4.75;100.00;103086.34;5095725;28;20032;-74
2021/10/09 05:04:22;;;;;;;109.18;43.47;;;;;;;4.73;100.00;103080.22;5094583;28;20024;-75
2021/10/09 05:06:48;;;;;;;117.20;44.33;;;;;;;4.71;100.00;103087.31;5095473;28;20067;-75
2021/10/09 05:09:13;;;;;;;108.95;45.67;;;;;;;4.69;100.00;103081.25;5094975;28;20042;-75
2021/10/09 05:11:39;;;;;;;105.15;43.15;;;;;;;4.68;100.00;103087.44;5095411;28;20034;-75
2021/10/09 05:14:04;;;;;;;130.55;51.30;;;;;;;4.66;100.00;103087.47;5095393;28;20068;-74
2021/10/09 05:16:29;;;;;;;114.30;45.03;;;;;;;4.64;100.00;103077.88;5094748;28;20485;-75
2021/10/09 05:18:55;;;;;;;214.32;67.22;;;;;;;4.64;100.00;103086.63;5077261;28;20036;-75
2021/10/09 05:21:20;;;;;;;172.25;59.83;;;;;;;4.67;100.00;103078.66;5094260;28;20056;-75
2021/10/09 05:23:46;;;;;;;164.25;57.30;;;;;;;4.68;100.00;103083.00;5095177;28;20040;-75
2021/10/09 05:26:11;;;;;;;141.07;52.20;;;;;;;4.69;100.00;103084.75;5077010;28;20105;-75
2021/10/09 05:31:03;;;;;;;183.90;61.88;;;;;;;4.69;100.00;103091.81;5094831;28;20039;-75
2021/10/09 05:35:57;;;;;;;169.25;58.83;;;;;;;4.71;100.00;103087.31;5095099;28;20400;-75
2021/10/09 05:38:23;;;;;;;179.52;60.65;;;;;;;4.71;100.00;103089.97;5094249;28;20109;-75
2021/10/09 05:40:49;;;;;;;193.32;63.50;;;;;;;4.71;100.00;103088.19;5094829;28;20032;-75
2021/10/09 05:43:16;;;;;;;158.63;55.45;;;;;;;4.71;100.00;103097.88;5094179;28;20075;-76
2021/10/09 05:45:42;;;;;;;131.57;49.63;;;;;;;4.69;100.00;103097.94;5094721;28;20035;-75
2021/10/09 05:48:08;;;;;;;139.82;51.15;;;;;;;4.68;100.00;103103.25;5094782;28;20028;-75
2021/10/09 05:51:01;;;;;;;108.75;45.25;;;;;;;4.67;100.00;103099.75;5093927;28;20054;-75
2021/10/09 05:53:46;;;;;;;98.40;40.13;;;;;;;4.66;100.00;103095.38;5093859;28;20370;-75
2021/10/09 06:42:35;;;;;;;205.02;68.15;;;;;;;5.21;100.00;103127.13;5093990;28;20051;-76
2021/10/09 07:01:24;;;;;;;242.60;74.97;;;;;;;6.05;100.00;103145.56;5092790;28;20177;-77
2021/10/09 07:03:49;;;;;;;252.98;77.88;;;;;;;6.12;100.00;103140.00;5041857;28;20119;-75
2021/10/09 07:06:17;;;;;;;248.07;75.88;;;;;;;6.22;100.00;103152.91;5093076;28;20448;-76
2021/10/09 07:08:42;;;;;;;252.90;78.57;;;;;;;6.29;100.00;103142.03;5092510;28;20518;-76
2021/10/09 07:11:08;;;;;;;266.13;80.72;;;;;;;6.41;100.00;103153.13;5092883;28;20056;-76
2021/10/09 07:13:33;;;;;;;255.32;78.80;;;;;;;6.51;100.00;103151.88;5074434;28;20034;-76
2021/10/09 07:15:59;;;;;;;262.17;80.28;;;;;;;6.62;100.00;103156.75;5092668;28;20391;-75
2021/10/09 07:18:24;;;;;;;252.88;80.15;;;;;;;6.71;100.00;103145.81;5092546;28;20024;-75
2021/10/09 07:20:50;;;;;;;255.90;79.18;;;;;;;6.82;100.00;103158.66;5092839;28;20034;-75
2021/10/09 07:23:15;;;;;;;250.10;77.10;;;;;;;6.92;100.00;103156.53;5093022;28;20056;-75
2021/10/09 07:25:41;;;;;;;230.82;74.15;;;;;;;7.03;100.00;103156.97;5091812;28;20043;-76
2021/10/09 07:28:07;;;;;;;218.27;72.40;;;;;;;7.11;100.00;103156.69;5092871;28;20109;-76
2021/10/09 07:30:32;;;;;;;219.38;72.78;;;;;;;7.19;100.00;103157.22;5092230;28;20123;-75
2021/10/09 07:32:58;;;;;;;223.45;72.65;;;;;;;7.27;100.00;103154.28;5092768;28;20108;-75
2021/10/09 07:35:24;;;;;;;209.82;70.43;;;;;;;7.36;100.00;103153.91;5093018;28;20169;-76
2021/10/09 07:37:50;;;;;;;183.85;64.93;;;;;;;7.45;100.00;103153.56;5091735;28;20499;-76
2021/10/09 07:40:17;;;;;;;187.15;65.10;;;;;;;7.52;100.00;103162.09;5092650;28;20119;-77
2021/10/09 07:42:43;;;;;;;174.90;64.38;;;;;;;7.59;100.00;103161.78;5092103;28;20157;-76
2021/10/09 07:45:08;;;;;;;188.73;66.18;;;;;;;7.68;100.00;103165.84;5092700;28;20115;-72
2021/10/09 07:47:34;;;;;;;154.98;60.33;;;;;;;7.79;100.00;103170.69;5092072;28;20032;-82
2021/10/09 07:49:59;;;;;;;159.98;61.20;;;;;;;7.90;100.00;103162.31;5092610;28;20028;-75
2021/10/09 07:52:25;;;;;;;142.32;58.97;;;;;;;8.01;100.00;103167.16;5091389;28;20067;-75
2021/10/09 07:54:50;;;;;;;134.98;55.97;;;;;;;8.07;100.00;103170.41;5092114;28;20036;-76
2021/10/09 07:57:15;;;;;;;126.03;55.35;;;;;;;8.14;100.00;103170.16;5092555;28;20111;-74
2021/10/09 07:59:41;;;;;;;130.95;55.78;;;;;;;8.19;100.00;103174.31;5088223;28;20151;-76
2021/10/09 08:02:06;;;;;;;121.15;54.05;;;;;;;8.26;100.00;103165.16;5089750;28;20380;-74
2021/10/09 08:04:32;;;;;;;123.50;53.53;;;;;;;8.30;100.00;103169.41;5088856;28;20125;-74
2021/10/09 08:06:57;;;;;;;121.93;54.33;;;;;;;8.40;100.00;103171.66;5089407;28;20032;-74
2021/10/09 08:09:26;;;;;;;116.38;51.92;;;;;;;8.51;100.00;103171.22;5090043;28;20105;-75
2021/10/09 08:11:52;;;;;;;97.13;48.72;;;;;;;8.61;100.00;103181.38;5088757;28;20113;-75
2021/10/09 08:14:17;;;;;;;100.95;49.53;;;;;;;8.71;100.00;103179.13;5090080;28;20070;-76
2021/10/09 08:16:42;;;;;;;93.78;47.97;;;;;;;8.80;100.00;103180.50;5089447;28;20051;-78
2021/10/09 08:19:08;;;;;;;98.13;47.45;;;;;;;8.92;100.00;103181.75;5089653;28;20047;-79
2021/10/09 08:21:39;;;;;;;80.72;47.17;;;;;;;9.12;100.00;103180.81;5088255;28;20048;-78
2021/10/09 08:24:28;;;;;;;70.15;41.33;;;;;;;9.31;100.00;103178.13;5089265;28;20054;-77
2021/10/09 08:35:30;;;;;;;53.95;35.75;;;;;;;10.62;94.02;103186.66;5089292;28;20506;-76
2021/10/09 08:40:40;;;;;;;48.03;31.65;;;;;;;12.65;82.66;103182.97;5088957;28;20047;-74
2021/10/09 08:43:05;;;;;;;53.25;31.10;;;;;;;13.73;78.11;103177.88;5089250;28;20044;-74
2021/10/09 08:45:31;;;;;;;44.30;29.13;;;;;;;14.95;72.55;103181.03;5089379;28;20039;-75
2021/10/09 08:47:56;;;;;;;39.13;27.48;;;;;;;15.99;66.74;103176.94;5088263;28;20066;-77
2021/10/09 08:50:22;;;;;;;39.20;27.15;;;;;;;17.06;61.97;103177.53;5089220;28;20036;-75
2021/10/09 08:53:08;;;;;;;35.58;26.40;;;;;;;17.98;59.12;103182.44;5088747;28;20428;-77
2021/10/09 08:55:36;;;;;;;39.03;27.00;;;;;;;18.61;57.09;103177.97;5089273;28;20236;-75
2021/10/09 08:58:06;;;;;;;40.05;26.25;;;;;;;18.95;55.00;103175.84;5089151;28;20052;-75
2021/10/09 09:00:57;;;;;;;33.92;26.83;;;;;;;18.85;54.56;103178.53;5089052;28;20580;-77
2021/10/09 09:03:32;;;;;;;35.17;26.70;;;;;;;19.30;53.61;103174.50;5088628;28;20109;-77
2021/10/09 09:31:00;;;;;;;34.33;25.65;;;;;;;20.08;50.42;103170.94;5095034;28;20036;-71
2021/10/09 09:41:46;;;;;;;32.05;24.17;;;;;;;20.36;50.66;103165.59;5094932;28;20035;-71
2021/10/09 09:44:14;;;;;;;31.83;24.98;;;;;;;20.68;49.93;103170.63;5082487;28;20048;-73
2021/10/09 09:46:40;;;;;;;31.67;25.75;;;;;;;20.46;49.41;103165.56;5076440;28;20392;-78
2021/10/09 09:49:06;;;;;;;30.95;25.35;;;;;;;20.88;48.87;103163.25;5095062;28;20116;-77
2021/10/09 09:51:36;;;;;;;33.20;25.48;;;;;;;20.93;48.61;103162.81;5094860;28;20036;-77
2021/10/09 09:54:01;;;;;;;30.77;24.42;;;;;;;21.04;48.63;103161.75;5093984;28;20060;-81
2021/10/09 09:56:27;;;;;;;34.15;26.73;;;;;;;21.11;47.65;103160.13;5094662;28;20499;-78
2021/10/09 09:58:59;;;;;;;34.78;23.90;;;;;;;21.37;47.62;103164.78;5093703;28;20123;-76
2021/10/09 10:01:29;;;;;;;35.55;25.02;;;;;;;21.33;47.78;103161.50;5094617;28;20024;-77
2021/10/09 10:03:58;;;;;;;29.35;24.70;;;;;;;21.54;49.01;103163.97;5093921;28;20032;-83
2021/10/09 10:06:27;;;;;;;30.65;24.98;;;;;;;22.00;46.32;103158.38;5094373;28;20032;-75
2021/10/09 10:08:54;;;;;;;29.77;23.85;;;;;;;21.56;44.67;103153.81;5093621;28;20070;-79
2021/10/09 10:11:20;;;;;;;32.75;23.13;;;;;;;21.88;47.47;103155.06;5076302;28;20364;-78
2021/10/09 10:13:47;;;;;;;31.98;24.23;;;;;;;22.21;45.61;103163.41;5093120;28;20039;-79
2021/10/09 10:16:13;;;;;;;28.00;23.83;;;;;;;22.10;45.68;103147.44;5093480;28;20109;-80
2021/10/09 10:18:45;;;;;;;33.28;24.73;;;;;;;21.91;44.79;103156.63;5094169;28;20055;-83
2021/10/09 10:21:12;;;;;;;28.85;24.05;;;;;;;21.67;46.54;103158.97;5094359;28;20040;-83
2021/10/09 10:23:41;;;;;;;30.58;24.52;;;;;;;21.44;46.15;103155.03;5094255;28;20472;-83
2021/10/09 10:26:18;;;;;;;31.85;25.08;;;;;;;20.77;48.77;103153.47;5093314;28;20043;-82
2021/10/09 10:28:45;;;;;;;30.67;25.65;;;;;;;20.15;51.19;103146.88;5093303;28;20149;-80
2021/10/09 10:31:10;;;;;;;33.88;25.65;;;;;;;18.88;55.55;103145.03;5093689;28;20119;-79
2021/10/09 10:33:38;;;;;;;34.17;25.60;;;;;;;17.88;59.04;103153.72;5093994;28;20072;-75
2021/10/09 10:36:05;;;;;;;44.78;26.23;;;;;;;16.87;60.25;103150.44;5093208;28;20032;-75
2021/10/09 10:38:34;;;;;;;35.70;25.80;;;;;;;16.47;62.17;103153.59;5093839;28;20028;-74
2021/10/09 10:41:05;;;;;;;42.40;28.02;;;;;;;15.85;66.18;103150.31;5093083;28;20039;-76
2021/10/09 10:43:36;;;;;;;39.70;27.70;;;;;;;15.22;66.24;103149.66;5093961;28;20024;-75
2021/10/09 10:56:55;;;;;;;47.50;28.15;;;;;;;14.71;71.68;103151.50;5092759;28;20457;-75
2021/10/09 10:59:30;;;;;;;41.00;27.95;;;;;;;14.85;69.86;103149.66;5095097;28;20376;-74
2021/10/09 11:02:10;;;;;;;42.17;27.73;;;;;;;14.74;67.54;103145.94;5093211;28;20035;-76
2021/10/09 11:04:37;;;;;;;44.47;28.52;;;;;;;14.73;68.06;103143.34;5093958;28;20497;-77
2021/10/09 11:07:03;;;;;;;40.75;27.50;;;;;;;14.66;69.58;103148.31;5075164;28;20427;-76
2021/10/09 11:09:29;;;;;;;36.72;27.85;;;;;;;14.63;70.76;103152.06;5093720;28;20111;-74
2021/10/09 11:11:54;;;;;;;41.55;28.42;;;;;;;14.66;71.21;103151.00;5092652;28;20028;-74
2021/10/09 11:14:21;;;;;;;43.28;28.27;;;;;;;14.76;71.15;103140.47;5093803;28;20035;-74
2021/10/09 11:16:48;;;;;;;40.67;28.92;;;;;;;14.76;70.55;103148.50;5093019;28;20026;-75
2021/10/09 11:19:13;;;;;;;44.33;28.75;;;;;;;14.77;71.58;103150.22;5092768;28;20028;-74
2021/10/09 11:21:54;;;;;;;35.35;26.88;;;;;;;14.77;68.77;103148.38;5092825;28;20176;-77
2021/10/09 11:24:19;;;;;;;42.00;26.48;;;;;;;14.91;71.69;103146.53;5093235;28;20060;-74
2021/10/09 11:26:52;;;;;;;40.08;26.33;;;;;;;14.95;69.96;103145.34;5092865;28;20111;-72
2021/10/09 11:29:18;;;;;;;35.33;26.50;;;;;;;15.05;69.74;103141.03;5092722;28;20036;-73
2021/10/09 11:31:44;;;;;;;42.83;27.05;;;;;;;15.13;67.52;103143.13;5092682;28;20119;-71
2021/10/09 11:34:09;;;;;;;41.45;26.35;;;;;;;15.27;69.95;103147.47;5092175;28;20028;-71
2021/10/09 11:36:38;;;;;;;44.30;27.52;;;;;;;15.36;67.54;103143.25;5092637;28;20043;-71
2021/10/09 11:39:13;;;;;;;41.83;25.00;;;;;;;15.47;67.23;103133.44;5092029;28;20373;-74
2021/10/09 11:41:41;;;;;;;38.85;26.73;;;;;;;15.50;67.16;103138.56;5092791;28;20031;-75
2021/10/09 11:44:22;;;;;;;34.70;26.05;;;;;;;15.52;66.68;103133.97;5074282;28;20426;-77
2021/10/09 11:55:19;;;;;;;39.20;26.60;;;;;;;15.67;66.97;103134.63;5053368;28;20407;-75
2021/10/09 11:57:44;;;;;;;41.83;27.50;;;;;;;15.72;66.16;103136.06;5092544;28;20028;-74
2021/10/09 12:00:28;;;;;;;39.75;27.33;;;;;;;15.77;67.25;103140.13;5091955;28;20043;-74
2021/10/09 12:02:58;;;;;;;40.38;28.38;;;;;;;15.80;66.92;103137.25;5096727;28;20479;-79
2021/10/09 12:05:32;;;;;;;39.40;26.58;;;;;;;15.82;66.77;103138.00;5099252;28;20051;-72
2021/10/09 12:08:15;;;;;;;35.38;26.52;;;;;;;15.90;66.09;103140.09;5096895;28;20028;-68
2021/10/09 12:10:41;;;;;;;40.97;26.85;;;;;;;16.03;67.35;103138.16;5077263;28;20032;-70
2021/10/09 12:13:07;;;;;;;36.65;26.55;;;;;;;16.17;68.06;103134.38;5092149;28;20039;-69
2021/10/09 12:15:36;;;;;;;37.78;26.85;;;;;;;16.31;65.04;103130.59;5093605;28;20036;-72
2021/10/09 12:18:02;;;;;;;40.20;25.75;;;;;;;16.36;65.46;103128.44;5091676;28;20028;-69
2021/10/09 12:20:28;;;;;;;41.28;27.50;;;;;;;16.47;65.18;103130.25;5092315;28;20111;-71
2021/10/09 12:22:55;;;;;;;45.13;28.73;;;;;;;16.57;66.99;103122.31;5092118;28;20048;-71
2021/10/09 12:25:27;;;;;;;45.53;27.98;;;;;;;16.78;64.81;103129.59;5091816;28;20452;-71
2021/10/09 12:27:58;;;;;;;39.03;27.75;;;;;;;17.03;64.73;103121.31;5092091;28;20032;-71
2021/10/09 12:30:44;;;;;;;34.40;27.08;;;;;;;17.55;63.66;103113.38;5092525;28;20030;-73
2021/10/09 12:33:10;;;;;;;35.65;25.48;;;;;;;18.06;59.14;103109.06;5091550;28;20103;-74
2021/10/09 12:35:36;;;;;;;35.60;26.65;;;;;;;18.49;59.47;103110.66;5092229;28;20116;-72
2021/10/09 12:38:07;;;;;;;34.28;24.38;;;;;;;19.14;58.75;103107.59;5091566;28;20373;-73
2021/10/09 12:40:38;;;;;;;35.25;25.10;;;;;;;19.96;54.49;103102.72;5095930;28;20032;-71
2021/10/09 12:43:05;;;;;;;;;;;;;;;20.65;53.84;103099.72;5095620;28;20115;-72
2021/10/09 12:45:30;;;;;;;34.25;24.20;;;;;;;21.33;50.51;103104.66;5096133;28;19912;-72
2021/10/09 12:47:58;;;;;;;30.77;23.50;;;;;;;21.86;48.15;103096.66;5095536;28;20036;-73
2021/10/09 12:50:25;;;;;;;28.90;22.75;;;;;;;22.28;47.09;103093.97;5095157;28;20156;-72
2021/10/09 12:52:53;;;;;;;33.03;24.42;;;;;;;22.45;44.69;103096.78;5095374;28;20438;-70
2021/10/09 12:55:19;;;;;;;32.30;23.40;;;;;;;22.41;44.76;103099.00;5095067;28;20464;-71
2021/10/09 12:57:53;;;;;;;37.70;23.35;;;;;;;22.57;47.08;103098.19;5095809;28;20037;-75
2021/10/09 13:00:20;;;;;;;35.53;24.85;;;;;;;22.66;47.57;103090.94;5095024;28;20039;-76
2021/10/09 13:02:46;;;;;;;33.33;24.50;;;;;;;22.94;45.33;103091.50;5095858;28;20039;-75
2021/10/09 13:05:11;;;;;;;34.17;23.55;;;;;;;22.73;43.25;103091.13;5076735;28;20377;-76
2021/10/09 13:07:37;;;;;;;35.85;24.13;;;;;;;23.35;45.52;103088.03;5095542;28;20114;-75
2021/10/09 13:10:04;;;;;;;29.20;24.00;;;;;;;23.09;44.40;103082.72;5094824;28;20043;-78
2021/10/09 13:12:31;;;;;;;39.17;22.63;;;;;;;23.04;46.76;103081.34;5095483;28;20061;-75
2021/10/09 13:14:56;;;;;;;28.88;22.33;;;;;;;23.35;44.04;103085.31;5077327;28;20032;-73
2021/10/09 13:17:22;;;;;;;33.90;23.35;;;;;;;23.32;43.76;103081.06;5094716;28;20388;-74
2021/10/09 13:19:47;;;;;;;33.22;22.30;;;;;;;23.38;41.86;103077.66;5095659;28;20028;-82
2021/10/09 13:22:12;;;;;;;31.13;21.98;;;;;;;23.83;44.31;103080.00;5094636;28;20040;-80
2021/10/09 13:24:38;;;;;;;29.27;22.85;;;;;;;23.63;42.05;103074.91;5095188;28;20039;-80
2021/10/09 13:27:04;;;;;;;33.58;23.10;;;;;;;23.51;42.67;103074.44;5095018;28;20039;-78
2021/10/09 13:29:29;;;;;;;29.48;22.20;;;;;;;23.30;45.25;103065.94;5095108;28;20036;-80
2021/10/09 13:31:54;;;;;;;31.83;22.67;;;;;;;23.36;43.12;103057.97;5095084;28;20028;-80